WetterOnline ( https://www.wetteronline.de )

Wetter aktuell Lancken-Granitz

Aktuelles Wetter: Putbus/Rügen (41m)

6-stündlich | Neueste Meldungen
Ortszeit Temperatur Wetter
So, 12.07. 2:00 10.0° C wolkenlos
Sa, 11.07. 20:00 16.5° C wolkenlos
Sa, 11.07. 14:00 17.6° C fast wolkenlos
Sa, 11.07. 8:00 12.8° C wolkenlos
Sa, 11.07. 2:00 10.5° C wolkig
Fr, 10.07. 20:00 12.9° C bewölkt
Fr, 10.07. 14:00 15.7° C Regen
Fr, 10.07. 8:00 12.4° C Regen
Ortszeit Temperatur Wetter
So, 12.07. 6:00 9.9° C wolkenlos
So, 12.07. 5:30 9.2° C wolkenlos
So, 12.07. 5:20 9.2° C wolkenlos
So, 12.07. 5:10 9.4° C fast wolkenlos
So, 12.07. 5:00 10.3° C leicht bewölkt
So, 12.07. 4:50 10.3° C leicht bewölkt
So, 12.07. 4:30 10.1° C wolkenlos
So, 12.07. 4:00 9.4° C wolkenlos
So, 12.07. 3:30 9.7° C leicht bewölkt
So, 12.07. 3:00 9.9° C fast wolkenlos
So, 12.07. 2:30 10.0° C wolkenlos
Ortszeit Relative Feuchte Sichtweite
So, 12.07. 2:00 90% 55 km
Sa, 11.07. 20:00 58% 60 km
Sa, 11.07. 14:00 54% >70 km
Sa, 11.07. 8:00 80% >70 km
Sa, 11.07. 2:00 92% 50 km
Fr, 10.07. 20:00 83% >70 km
Fr, 10.07. 14:00 97% 28 km
Fr, 10.07. 8:00 94% 8 km
Ortszeit Relative Feuchte Sichtweite
So, 12.07. 6:00 90% 50 km
So, 12.07. 5:30 92% 45 km
So, 12.07. 5:20 92% -
So, 12.07. 5:10 90% -
So, 12.07. 5:00 87% 50 km
So, 12.07. 4:50 87% -
So, 12.07. 4:30 87% 60 km
So, 12.07. 4:00 90% 50 km
So, 12.07. 3:30 90% 50 km
So, 12.07. 3:00 89% 55 km
So, 12.07. 2:30 89% 50 km
Ortszeit Niederschlagsmenge Niederschlagsart
So, 12.07. 2:00 0.0 l/m2 in 6 Std. -
Sa, 11.07. 20:00 0.1 l/m2 in 12 Std. -
Sa, 11.07. 14:00 0.1 l/m2 in 6 Std. Regen
Sa, 11.07. 8:00 0.0 l/m2 in 12 Std. -
Sa, 11.07. 2:00 0.0 l/m2 in 6 Std. -
Fr, 10.07. 20:00 6 l/m2 in 12 Std. Regen
Fr, 10.07. 14:00 4 l/m2 in 6 Std. Regen
Fr, 10.07. 8:00 3 l/m2 in 12 Std. Regen
Ortszeit Niederschlagsmenge Niederschlagsart
So, 12.07. 6:00 keine Meldung -
So, 12.07. 5:30 0.0 l/m2 in 1 Std. -
So, 12.07. 5:20 keine Meldung -
So, 12.07. 5:10 keine Meldung -
So, 12.07. 5:00 0.0 l/m2 in 1 Std. -
So, 12.07. 4:50 keine Meldung -
So, 12.07. 4:30 0.0 l/m2 in 1 Std. -
So, 12.07. 4:00 0.0 l/m2 in 1 Std. -
So, 12.07. 3:30 0.0 l/m2 in 1 Std. -
So, 12.07. 3:00 0.0 l/m2 in 1 Std. -
So, 12.07. 2:30 0.0 l/m2 in 1 Std. -
Ortszeit Stärke Spitze Richtung
km/h Bft. km/h Grad Sektor
So, 12.07. 2:00 13 3 41 260° W
Sa, 11.07. 20:00 22 4 50 280° W
Sa, 11.07. 14:00 29 5 47 290° W
Sa, 11.07. 8:00 18 3 32 260° W
Sa, 11.07. 2:00 11 2 25 250° W
Fr, 10.07. 20:00 14 3 47 290° W
Fr, 10.07. 14:00 7 2 25 120° SO
Fr, 10.07. 8:00 7 2 11 10° N
Ortszeit Stärke Spitze Richtung
km/h Bft. km/h Grad Sektor
So, 12.07. 6:00 11 2 14 250° W
So, 12.07. 5:30 11 2 14 250° W
So, 12.07. 5:20 11 2 - 250° W
So, 12.07. 5:10 11 2 - 250° W
So, 12.07. 5:00 11 2 22 250° W
So, 12.07. 4:50 11 2 - 250° W
So, 12.07. 4:30 13 3 19 280° W
So, 12.07. 4:00 11 2 14 260° W
So, 12.07. 3:30 9 2 15 260° W
So, 12.07. 3:00 13 3 17 260° W
So, 12.07. 2:30 13 3 17 260° W
Ortszeit Untergrenze Bedeckung Gattung
total tief tief mittel hoch
So, 12.07. 2:00 - 0/8 0/8 - - -
Sa, 11.07. 20:00 - 0/8 0/8 - - -
Sa, 11.07. 14:00 1470 m 1/8 1/8 - - -
Sa, 11.07. 8:00 - 0/8 0/8 - - -
Sa, 11.07. 2:00 690 m 5/8 5/8 - - -
Fr, 10.07. 20:00 690 m 7/8 7/8 - - -
Fr, 10.07. 14:00 90 m 7/8 7/8 - - -
Fr, 10.07. 8:00 600 m 8/8 8/8 - - -
Ortszeit Bedeckungsgrad in Achtel und Wolkenuntergrenze
So, 12.07. 6:00 keine Wolken
So, 12.07. 5:30 keine Wolken
So, 12.07. 5:20 keine Wolken
So, 12.07. 5:10 1(690m)
So, 12.07. 5:00 2(690m)
So, 12.07. 4:50 2(690m)
So, 12.07. 4:30 keine Wolken
So, 12.07. 4:00 keine Wolken
So, 12.07. 3:30 2(810m)
So, 12.07. 3:00 1(870m)
So, 12.07. 2:30 keine Wolken
Ortszeit Luftdruck NN (hPa) Tendenz (hPa in 3 Std.)
So, 12.07. 2:00 1023 + 0,4
Sa, 11.07. 20:00 1022 + 0,8
Sa, 11.07. 14:00 1021 + 1,3
Sa, 11.07. 8:00 1018 + 1,4
Sa, 11.07. 2:00 1015 + 2,2
Fr, 10.07. 20:00 1011 + 4,0
Fr, 10.07. 14:00 1005 - 2,5
Fr, 10.07. 8:00 1009 - 0,8
Ortszeit Luftdruck NN (hPa) Tendenz (hPa in 3 Std.)
So, 12.07. 6:00 1024 + 0,4
So, 12.07. 5:30 1024 + 0,3
So, 12.07. 5:20 1024 keine Meldung
So, 12.07. 5:10 1024 keine Meldung
So, 12.07. 5:00 1024 + 0,3
So, 12.07. 4:50 1024 keine Meldung
So, 12.07. 4:30 1024 0,0
So, 12.07. 4:00 1023 0,0
So, 12.07. 3:30 1024 + 0,2
So, 12.07. 3:00 1024 + 0,4
So, 12.07. 2:30 1024 + 0,5
Ortszeit Schneehöhe (cm)
So, 12.07. 2:00 -
Sa, 11.07. 20:00 -
Sa, 11.07. 14:00 -
Sa, 11.07. 8:00 -
Sa, 11.07. 2:00 -
Fr, 10.07. 20:00 -
Fr, 10.07. 14:00 -
Fr, 10.07. 8:00 -
Ortszeit Schneehöhe (cm)
So, 12.07. 6:00 -
So, 12.07. 5:30 -
So, 12.07. 5:20 -
So, 12.07. 5:10 -
So, 12.07. 5:00 -
So, 12.07. 4:50 -
So, 12.07. 4:30 -
So, 12.07. 4:00 -
So, 12.07. 3:30 -
So, 12.07. 3:00 -
So, 12.07. 2:30 -
Link zu dieser Seite / Seite empfehlen

Das Wetter in ...